Archival Weather

NSFA McMurdo Sound

NSFA McMurdo Sound, Antarctica (NZCM)

Report from: Tuesday, June 6, 2023 7:55 PM UTC
Current time: Wednesday, May 29, 2024 8:55 AM UTC

Current weather – Weather history – Daily summaries
Weather forecast

Temperature-23.7°C (-10.7°F)
Wind chill-28.9°C (-20.0°F)
Dew point-34.7°C (-30.5°F)
Winds 3 kts (1.5 m/s, 3.5 mph) North (10°)
Visibility6.2 mi. (10 km)
Clouds Ceiling: Broken clouds 17,000 ft. (5,182 m)
Altimeter28.82 in.Hg (976 mB)
Relative humidity35 %
Density altitude-7,148 ft. (-2,179 m)
Sea-level pressure107.7 kPa (1077 mB, 31.79 in.Hg)
Remarks Fully automated report
Automated weather observing station with precipitation discriminator
Flight conditions Visual Meteorological Conditions
Raw dataNZCM 061955Z AUTO 01003KT 9999 BKN170 M24/M35 A2882 RMK AO2 SLP766 T12371347
An error has occurred. This application may no longer respond until reloaded. Reload 🗙